Portada
METAR-TAF:

METAR-TAF

Aeropuertos :

Aeropuerto Internacional de Conakri

Conakry, Guinea

latitud: 09-34N, longitud: 013-37W, altitud: 26 m

Observación

El informe se hizo hace 1 hora y 2 minutos, a las 12:00 UTC
Viento 6 kt del sur
Temperatura 29°C
Humedad 66%
Presión 1013 hPa
Visibilidad: 2500 m
calima

METAR: GUCY 171200Z 18006KT 2500 HZ NSC 29/22 Q1013 NOSIG

Hora: 13:02 (13:02 UTC)

Pronóstico

El informe se hizo hace 2 horas y 2 minutos, a las 11:00 UTC
Pronóstico válido del 17 a las 12 UTC al 18 a las 18 UTC
Viento 6 kt del oeste-noroeste
Visibilidad: 4000 m
calima
Temporalmente
del 18 a las 00 UTC al 18 a las 06 UTC
Visibilidad: 2000 m
Escasas nubes a una altura de 1600 ft
neblina

TAF: GUCY 171100Z 1712/1818 30006KT 4000 HZ NSC TEMPO 1800/1806 2000 BR FEW016

Observaciones y pronósticos meteorológicos de más de 4000 aeropuertos (mensajes METAR y TAF).

Los puntos amarillos y rojos representan las estaciones disponibles.

Ponga el ratón en el punto deseado para ver el nombre de la estación.

Haga clic para ver las observaciones y los pronósticos meteorológicos.

Para cambiar el mapa : haga clic en los botones verdes con una cruz de color negro para hacer un zoom, en el botón verde con un guión para alejar o en las flechas verdes para mapas adyacentes.


METAR-TAF: